Atco, New Jersey
Current Conditions -  °F | °C
As of 2:54 PM on Thursday 30 Oct 2014 (Local Time) from KVAY Reporting Station
Broken Clouds Broken Clouds  
Wind Chill: 57°   Ceiling: 6500
Heat Index: 57°   Visibility: 10mi
Dew Point: 38°   Wind: 8mph
Humidity: 49%   Direction: 350°N
Pressure: 29.98"   Gusts: NA
Location:  39.77°N, 74.89°W
Report Text: KVAY 301854Z AUTO 35007KT 10SM FEW050 BKN065 14/03 A2998 RMK AO2 SLP152 T01390033
Loading
Personal Weather Stations






























Interactive Weather Map
Tropical Storm Tracking
New forecast layout! Learn more

10-Day Weather Forecast

Advertisements
Track Severe Weather on mobile